Date,TemperatureHighF,TemperatureAvgF,TemperatureLowF,DewpointHighF,DewpointAvgF,DewpointLowF,HumidityHigh,HumidityAvg,HumidityLow,PressureMaxIn,PressureMinIn,WindSpeedMaxMPH,WindSpeedAvgMPH,GustSpeedMaxMPH,PrecipitationSumIn
2012-1-11,71.0,50.5,36.0,46.0,38.4,33.0,89,68,27,29.86,29.79,3,1,8,0.00
2012-1-12,72.0,50.1,36.0,42.0,33.2,27.0,89,59,19,29.91,29.78,3,1,10,0.00
2012-1-13,77.0,54.9,43.0,36.0,31.4,22.0,64,45,13,29.99,29.90,3,1,10,0.00
2012-1-14,74.0,49.7,36.0,36.0,29.1,15.0,79,49,11,29.98,29.88,4,1,8,0.00
2012-1-15,57.0,43.9,32.0,45.0,35.1,29.0,87,72,59,29.97,29.86,8,2,17,0.00
2012-1-16,54.0,38.8,26.0,33.0,26.8,23.0,90,67,31,30.14,29.97,5,1,10,0.01
2012-1-17,57.0,42.7,28.0,36.0,29.5,22.0,84,63,28,30.16,29.83,4,1,9,0.00
2012-1-18,57.0,40.5,28.0,42.0,30.3,23.0,91,70,34,29.93,29.79,3,0,8,0.00
2012-1-19,52.0,41.6,31.0,45.0,36.0,27.0,93,82,59,29.79,29.60,3,0,8,0.01
2012-1-20,58.0,56.6,55.0,57.0,54.8,51.0,97,93,83,29.53,29.30,3,0,12,1.26
2012-1-21,58.0,51.0,37.0,57.0,46.3,35.0,98,85,61,29.68,29.27,9,3,20,1.22
2012-1-22,59.0,47.5,37.0,50.0,42.7,36.0,97,85,55,29.70,29.37,2,0,11,0.28
2012-1-23,59.0,52.9,44.0,55.0,49.1,42.0,98,87,68,29.66,29.27,8,4,20,0.77
2012-1-24,60.0,49.8,42.0,52.0,45.9,41.0,98,88,68,29.92,29.66,3,0,7,0.01
2012-1-25,72.0,56.4,44.0,55.0,49.3,43.0,97,79,55,29.92,29.81,3,1,11,0.00
2012-1-26,68.0,54.5,46.0,59.0,51.6,45.0,99,91,71,29.87,29.72,4,0,8,0.00
2012-1-27,69.0,54.0,43.0,54.0,44.0,34.0,99,73,29,29.78,29.70,3,1,9,0.00
2012-1-28,73.0,53.7,40.0,42.0,36.9,31.0,77,56,28,29.83,29.70,3,1,12,0.00
2012-1-29,70.0,51.0,42.0,45.0,41.4,38.0,89,71,36,29.92,29.74,3,1,8,0.00
2012-1-30,61.0,49.8,40.0,51.0,44.7,38.0,93,83,57,29.91,29.79,3,0,8,0.00
2012-1-31,61.0,52.6,49.0,50.0,48.1,46.0,96,85,64,29.98,29.83,6,1,13,0.00
2012-2-1,61.0,50.5,42.0,52.0,46.1,40.0,96,85,69,30.05,29.97,4,0,9,0.00
2012-2-2,68.0,50.1,40.0,50.0,41.7,37.0,98,77,39,30.00,29.71,4,0,10,0.00
2012-2-3,70.0,48.4,35.0,44.0,36.8,22.0,91,69,26,29.83,29.73,13,1,105,0.00
2012-2-4,73.0,50.9,38.0,45.0,35.1,17.0,88,63,12,29.87,29.79,4,1,9,0.38
2012-2-5,77.0,54.4,39.0,42.0,35.5,25.0,78,53,16,29.87,29.74,3,1,10,0.00
2012-2-6,64.0,52.9,44.0,49.0,40.5,34.0,74,64,34,29.78,29.53,3,1,25,0.02
2012-2-7,61.0,56.3,49.0,51.0,46.5,38.0,91,71,44,29.86,29.51,4,1,15,0.06
2012-2-8,73.0,53.9,44.0,52.0,46.6,43.0,98,80,40,30.01,29.86,3,1,9,0.01
2012-2-9,77.0,56.5,45.0,52.0,46.0,42.0,92,71,37,30.02,29.91,5,1,11,0.00
2012-2-10,64.0,51.6,40.0,55.0,48.0,39.0,98,89,51,30.00,29.87,4,1,8,0.02
2012-2-11,59.0,52.7,46.0,53.0,49.5,44.0,98,89,75,29.87,29.77,5,2,11,0.01
2012-2-12,58.0,51.5,48.0,48.0,46.8,46.0,93,84,68,29.87,29.79,4,1,10,0.03
2012-2-13,54.0,46.6,40.0,48.0,44.0,39.0,98,91,79,29.80,29.67,8,2,21,0.25
2012-2-14,60.0,47.1,36.0,49.0,42.5,35.0,99,86,60,29.90,29.77,4,1,11,0.01
2012-2-15,63.0,48.1,36.0,46.0,34.6,24.0,97,66,24,29.91,29.81,4,1,11,0.05
2012-2-16,64.0,49.9,37.0,42.0,37.1,32.0,88,66,34,30.01,29.91,4,1,8,0.00
2012-2-17,62.0,47.7,35.0,50.0,42.3,33.0,95,83,50,30.05,29.95,5,1,11,0.00
2012-2-18,65.0,53.7,50.0,53.0,49.3,47.0,98,87,55,30.00,29.87,3,1,10,0.00
2012-2-19,58.0,49.5,42.0,43.0,40.5,38.0,90,73,51,29.92,29.85,5,2,11,0.00
2012-2-20,61.0,49.6,41.0,49.0,44.3,39.0,95,84,58,29.98,29.86,3,0,8,0.02
2012-2-21,68.0,49.8,40.0,52.0,45.3,39.0,98,87,47,30.07,29.97,4,1,8,0.01
2012-2-22,76.0,56.7,44.0,55.0,47.8,43.0,97,76,39,30.03,29.85,4,0,8,0.00
2012-2-23,76.0,54.3,42.0,54.0,45.4,41.0,98,77,31,29.85,29.67,5,1,11,0.00
2012-2-24,77.0,53.0,41.0,47.0,37.2,29.0,92,63,18,30.01,29.75,5,1,10,0.33
2012-2-25,64.0,55.1,39.0,41.0,39.4,34.0,86,58,40,30.16,30.03,4,1,9,0.33
2012-2-26,60.0,46.7,35.0,42.0,36.8,32.0,90,71,35,30.03,29.75,5,1,11,0.00
2012-2-27,54.0,43.8,35.0,44.0,36.5,32.0,94,77,54,29.87,29.71,8,2,19,0.02
2012-2-28,56.0,43.3,31.0,45.0,34.9,29.0,95,75,45,30.14,29.88,5,1,13,0.01
2012-2-29,56.0,48.5,41.0,51.0,43.9,38.0,97,84,70,30.15,30.01,6,2,14,0.40
2012-3-1,55.0,44.4,35.0,51.0,42.2,34.0,98,92,81,30.19,30.08,5,1,13,0.02
2012-3-2,61.0,42.3,34.0,49.0,37.6,34.0,99,87,41,30.22,30.12,3,0,10,0.03
2012-3-4,83.0,58.1,42.0,48.0,42.3,38.0,94,62,20,30.11,29.89,3,1,10,0.00
2012-3-5,67.0,52.6,40.0,52.0,45.5,38.0,95,79,55,29.96,29.84,4,1,9,0.00
2012-3-6,62.0,50.2,36.0,47.0,36.7,19.0,97,65,22,29.91,29.82,7,2,17,0.02
2012-3-7,67.0,46.8,33.0,33.0,25.1,12.0,88,51,14,30.07,29.91,4,1,11,0.01
2012-3-8,76.0,48.0,32.0,40.0,32.1,25.0,83,61,15,30.22,30.07,4,1,10,0.00
2012-3-9,81.0,52.5,35.0,45.0,36.9,19.0,90,64,10,30.22,30.01,4,1,10,0.00
2012-3-10,62.0,49.8,39.0,50.0,43.1,-99.9,94,82,57,30.01,29.87,5,1,11,0.00
2012-3-11,60.0,52.5,44.0,49.0,46.2,42.0,93,80,60,29.97,29.90,4,1,11,0.00
2012-3-12,60.0,50.7,42.0,50.0,45.6,40.0,98,84,59,29.93,29.84,5,1,13,0.00
2012-3-13,58.0,54.5,51.0,54.0,49.2,44.0,92,82,71,29.91,29.84,3,0,7,0.10
2012-3-14,55.0,53.5,53.0,53.0,51.6,50.0,95,93,90,29.99,29.89,1,0,4,0.09
2012-3-15,64.0,56.3,50.0,58.0,54.0,49.0,99,93,79,30.04,29.96,5,1,12,0.07
2012-3-16,63.0,56.0,51.0,58.0,53.9,50.0,99,93,74,29.97,29.63,7,2,15,0.77
2012-3-17,51.0,46.3,42.0,50.0,43.4,39.0,99,90,69,29.64,29.41,3,1,12,1.13
2012-3-18,54.0,46.0,40.0,39.0,37.4,34.0,89,73,53,29.84,29.56,11,3,22,0.17
2012-3-19,59.0,46.3,36.0,39.0,36.9,34.0,94,73,40,29.93,29.83,5,1,13,0.06
2012-3-20,69.0,54.4,44.0,49.0,43.4,-99.9,92,71,43,30.07,29.98,4,1,11,0.00
2012-3-21,78.0,54.4,43.0,55.0,48.3,42.0,98,83,43,30.06,29.85,5,1,11,0.00
2012-3-22,62.0,53.8,46.0,54.0,48.0,-99.9,99,83,58,29.91,29.81,5,-6,11,0.00
2012-3-23,63.0,48.7,36.0,45.0,39.4,33.0,94,74,34,29.99,29.80,5,1,13,0.00
2012-3-24,62.0,48.1,41.0,48.0,43.3,38.0,97,84,57,29.80,29.67,6,1,13,0.18
2012-3-25,68.0,52.0,42.0,52.0,45.1,41.0,98,80,39,29.78,29.62,5,1,19,0.46
2012-3-26,61.0,50.1,40.0,47.0,43.6,39.0,97,80,54,29.98,29.78,6,1,14,0.01
2012-3-27,67.0,54.6,45.0,52.0,46.9,42.0,94,77,49,29.95,29.80,4,1,11,0.37
2012-3-28,65.0,56.0,52.0,57.0,53.1,51.0,98,90,70,30.01,29.85,5,1,13,0.43
2012-3-29,67.0,55.0,49.0,56.0,51.3,49.0,99,88,55,30.03,29.94,4,1,11,0.01
2012-3-30,67.0,56.2,51.0,56.0,52.3,49.0,96,88,62,30.00,29.82,6,1,12,0.00
2012-3-31,60.0,53.3,46.0,53.0,49.8,43.0,98,89,70,29.94,29.66,9,2,22,0.44
2012-4-1,66.0,49.4,41.0,48.0,41.3,33.0,97,79,31,30.13,29.94,3,1,9,0.11
2012-4-3,67.0,56.9,44.0,53.0,48.7,43.0,97,76,47,29.97,29.88,5,2,14,0.01
2012-4-4,65.0,52.5,40.0,53.0,40.8,32.0,97,67,31,30.06,29.97,5,2,17,0.01
2012-4-5,60.0,46.5,33.0,42.0,36.0,31.0,95,70,41,30.07,29.96,10,2,20,0.02
2012-4-6,64.0,51.5,34.0,45.0,39.0,32.0,91,65,36,30.14,30.02,5,2,13,0.02
2012-4-7,75.0,57.0,42.0,44.0,41.3,37.0,88,59,25,29.95,29.91,5,2,11,0.00
2012-4-8,72.0,50.3,36.0,48.0,41.8,35.0,95,75,36,29.95,29.89,6,2,11,0.00
2012-4-9,67.0,52.0,37.0,49.0,43.2,35.0,95,75,41,29.90,29.74,5,2,14,0.00
2012-4-10,58.0,52.1,45.0,54.0,47.7,40.0,97,85,68,29.78,29.70,1,0,5,0.28
2012-4-11,62.0,54.7,50.0,54.0,51.3,49.0,99,90,65,29.85,29.70,8,3,19,0.37
2012-4-12,64.0,55.4,48.0,54.0,47.3,43.0,95,75,54,29.94,29.72,7,2,17,0.39
2012-4-13,58.0,51.5,47.0,52.0,45.5,40.0,97,81,63,29.76,29.59,9,3,21,0.61
2012-4-14,63.0,53.7,46.0,51.0,43.8,-99.9,89,72,55,30.02,29.76,6,2,15,0.01
2012-4-15,62.0,53.6,47.0,52.0,48.8,45.0,93,84,68,30.11,30.02,4,1,11,0.00
2012-4-16,71.0,55.0,42.0,53.0,47.8,41.0,98,79,42,30.11,30.04,4,1,11,0.00
2012-4-17,68.0,54.8,44.0,55.0,49.5,43.0,97,84,53,30.06,29.96,5,1,11,0.00
2012-4-18,72.0,57.5,45.0,55.0,49.7,44.0,97,77,53,30.03,29.95,4,1,8,0.00
2012-4-19,78.0,61.1,47.0,62.0,53.9,46.0,96,79,55,30.03,29.89,4,1,9,0.05
2012-4-20,80.0,63.7,51.0,64.0,56.5,50.0,97,79,52,29.93,29.78,4,1,9,0.00
2012-4-21,89.0,63.6,54.0,65.0,55.6,51.0,95,78,43,29.82,29.72,5,1,11,0.00
2012-4-22,59.0,54.3,51.0,54.0,52.5,51.0,99,94,83,29.83,29.75,5,2,15,0.00
2012-4-23,68.0,58.1,53.0,56.0,53.9,52.0,99,88,61,29.86,29.80,5,2,15,0.02
2012-4-26,64.0,57.6,48.0,57.0,51.3,45.0,99,81,55,30.06,29.72,8,4,21,0.25
2012-4-27,69.0,53.7,40.0,51.0,45.9,39.0,97,78,49,30.11,29.99,4,1,10,0.01
2012-4-28,66.0,50.2,45.0,53.0,46.9,44.0,96,89,62,30.02,29.92,1,0,4,0.00
2012-4-29,70.0,61.9,52.0,58.0,53.9,49.0,92,76,63,29.87,29.81,4,1,10,0.00
2012-4-30,67.0,56.3,48.0,58.0,52.1,46.0,98,87,67,29.92,29.86,5,1,11,0.00
2012-5-1,71.0,57.7,49.0,52.0,49.5,45.0,94,76,49,29.91,29.83,5,1,11,0.00
2012-5-2,64.0,54.2,43.0,50.0,45.9,41.0,95,76,56,29.94,29.87,6,1,15,0.00
2012-5-3,65.0,55.9,48.0,54.0,50.1,45.0,96,82,65,30.04,29.92,5,1,11,0.01
2012-5-4,67.0,58.5,51.0,55.0,50.5,43.0,99,78,50,30.15,30.02,6,2,16,0.02
2012-5-5,74.0,56.5,40.0,53.0,45.4,-99.9,96,71,43,30.14,29.98,4,1,11,0.01
2012-5-6,77.0,59.2,42.0,55.0,47.4,40.0,94,69,33,30.01,29.91,4,1,10,0.00
2012-5-7,83.0,59.3,44.0,57.0,48.9,42.0,94,73,33,29.95,29.87,4,1,11,0.00
2012-5-8,70.0,57.1,48.0,57.0,51.0,45.0,95,81,59,29.92,29.86,4,1,11,0.00
2012-5-9,69.0,56.1,47.0,56.0,49.9,45.0,98,81,59,29.92,29.85,4,1,10,0.00
2012-5-10,68.0,56.3,47.0,54.0,49.4,45.0,95,79,56,29.88,29.80,4,1,11,0.00
2012-5-11,65.0,53.1,43.0,54.0,48.8,41.0,97,86,66,29.93,29.82,5,2,13,0.00
2012-5-12,66.0,54.2,49.0,55.0,49.5,-99.9,99,89,64,30.02,29.92,5,2,11,0.00
2012-5-13,63.0,55.6,51.0,52.0,50.2,48.0,97,83,63,30.06,29.99,6,2,15,0.00
2012-5-14,67.0,57.8,48.0,56.0,51.2,46.0,95,80,59,30.05,29.96,6,2,12,0.00
2012-5-15,68.0,55.7,45.0,54.0,49.8,44.0,97,82,58,30.00,29.93,5,1,11,0.00
2012-5-16,68.0,56.5,47.0,56.0,50.9,45.0,95,83,63,29.97,29.89,4,1,30,0.00
2012-5-17,69.0,56.3,50.0,54.0,50.7,46.0,98,83,58,29.91,29.82,7,2,15,0.00
2012-5-18,69.0,55.2,46.0,53.0,48.6,45.0,95,80,54,29.93,29.87,4,1,11,0.00
2012-5-19,69.0,55.8,44.0,53.0,48.0,-99.9,95,78,56,29.94,29.88,4,1,10,0.00
2012-5-20,73.0,58.1,44.0,57.0,49.9,42.0,95,77,50,29.95,29.85,5,1,10,0.00
2012-5-21,70.0,59.3,51.0,57.0,53.0,48.0,94,81,61,30.04,29.94,5,1,11,0.00
2012-5-22,78.0,61.8,49.0,58.0,52.5,47.0,97,75,43,30.06,29.96,4,1,10,0.00
2012-5-24,73.0,58.8,46.0,53.0,47.4,43.0,93,69,44,29.85,29.65,7,2,15,0.00
2012-5-25,62.0,54.6,43.0,49.0,45.1,39.0,89,71,60,29.80,29.70,10,4,23,0.01
2012-5-26,60.0,54.0,48.0,51.0,48.8,45.0,95,83,68,30.06,29.80,6,2,16,0.01
2012-5-27,67.0,57.9,49.0,52.0,49.5,44.0,87,74,58,30.09,30.01,4,1,11,0.00
2012-5-28,69.0,56.9,43.0,53.0,47.8,41.0,95,74,52,30.02,29.94,6,2,12,0.00
2012-5-29,67.0,59.8,51.0,53.0,50.3,47.0,87,72,57,30.01,29.96,4,1,10,0.00
2012-5-30,69.0,57.4,48.0,54.0,50.7,45.0,94,79,58,30.06,29.96,4,1,11,0.00
2012-5-31,70.0,56.7,44.0,58.0,50.4,42.0,97,81,60,29.99,29.80,4,1,10,0.00
2012-6-1,69.0,57.6,47.0,57.0,52.3,45.0,97,84,63,29.83,29.75,4,1,11,0.00
2012-6-2,72.0,56.6,54.0,57.0,50.7,-99.9,97,86,60,29.91,29.81,1,0,7,0.00
2012-6-3,71.0,58.7,52.0,55.0,52.0,50.0,97,80,55,29.91,29.81,4,1,10,0.00
2012-6-4,63.0,55.8,49.0,58.0,52.0,47.0,99,87,74,30.07,29.85,9,2,18,0.40
2012-6-5,67.0,56.3,43.0,52.0,46.5,42.0,98,73,50,30.13,30.02,8,2,18,0.01
2012-6-6,67.0,58.9,47.0,52.0,49.1,45.0,95,72,53,30.04,29.98,4,2,11,0.00
2012-6-7,58.0,57.2,56.0,52.0,51.7,51.0,84,82,80,29.93,29.91,0,0,4,0.00
2012-6-8,76.0,59.7,49.0,56.0,49.3,43.0,95,72,39,29.93,29.84,4,1,9,0.00
2012-6-9,80.0,59.7,44.0,51.0,47.1,42.0,93,67,34,29.91,29.76,5,1,11,0.00
2012-6-10,83.0,63.7,44.0,55.0,44.9,39.0,93,58,22,29.83,29.77,5,1,12,0.00
2012-6-11,80.0,61.1,48.0,53.0,48.0,43.0,87,65,30,29.90,29.81,5,1,10,0.00
2012-6-12,76.0,59.2,52.0,58.0,52.5,49.0,93,80,53,29.92,29.84,4,1,10,0.00
2012-6-13,66.0,58.1,53.0,56.0,52.4,49.0,97,82,63,29.90,29.74,4,1,11,0.00
2012-6-14,64.0,56.6,52.0,53.0,50.8,48.0,92,82,64,29.80,29.75,4,1,11,0.00
2012-6-15,68.0,57.8,50.0,54.0,50.0,47.0,93,77,57,29.80,29.75,5,2,11,0.00
2012-6-16,81.0,58.8,48.0,59.0,49.9,-99.9,94,77,46,29.78,29.72,5,1,11,0.00
2012-6-17,66.0,58.2,54.0,57.0,54.3,51.0,97,87,72,29.85,29.77,6,3,14,0.00
2012-6-18,63.0,55.8,53.0,55.0,52.3,50.0,98,88,74,29.89,29.83,5,2,11,0.00
2012-6-19,66.0,58.1,53.0,54.0,51.5,49.0,90,79,63,29.88,29.78,5,2,11,0.00
2012-6-20,68.0,57.0,45.0,56.0,51.0,43.0,96,82,61,29.80,29.74,5,2,11,0.00
2012-6-21,63.0,56.1,53.0,54.0,52.0,50.0,98,86,70,29.92,29.78,5,2,14,0.00
2012-6-22,66.0,58.2,54.0,55.0,51.6,49.0,91,79,64,29.92,29.81,5,2,12,0.00
2012-6-23,69.0,60.5,53.0,56.0,52.3,49.0,99,77,50,29.88,29.78,7,2,15,0.00
2012-6-24,69.0,55.6,46.0,53.0,49.1,44.0,96,80,54,29.96,29.88,5,1,12,0.00
2012-6-25,69.0,58.3,45.0,55.0,50.2,43.0,95,76,52,30.02,29.94,7,2,16,0.00
2012-6-26,72.0,58.2,46.0,54.0,50.2,44.0,95,77,50,29.97,29.85,5,1,11,0.00
2012-6-28,74.0,65.8,57.0,58.0,55.1,53.0,89,70,57,30.01,29.93,5,1,11,0.00
2012-6-29,71.0,61.5,54.0,59.0,55.8,52.0,96,83,65,30.03,29.94,6,2,15,0.00
2012-6-30,71.0,63.7,58.0,61.0,58.6,56.0,94,84,68,29.95,29.85,6,2,15,0.00
2012-7-1,72.0,64.9,60.0,64.0,59.5,57.0,98,84,61,29.89,29.78,6,2,15,0.00
2012-7-2,69.0,61.7,55.0,59.0,56.7,52.0,98,85,64,29.85,29.78,4,1,11,0.01
2012-7-3,71.0,61.1,53.0,57.0,54.0,51.0,94,79,58,29.85,29.77,4,1,11,0.01
2012-7-4,63.0,57.8,55.0,55.0,53.0,52.0,91,84,72,29.85,29.76,6,2,13,0.00
2012-7-5,74.0,61.5,55.0,56.0,53.0,51.0,92,75,52,29.93,29.85,5,2,10,0.00
2012-7-6,68.0,59.4,49.0,57.0,53.1,47.0,94,80,64,29.96,29.89,4,1,11,0.00
2012-7-7,69.0,56.8,48.0,59.0,52.9,46.0,96,87,69,29.93,29.88,5,1,11,0.00
2012-7-8,67.0,58.5,54.0,57.0,54.4,53.0,98,87,69,29.97,29.91,4,1,12,0.00
2012-7-9,76.0,65.5,53.0,57.0,54.2,50.0,88,68,52,29.92,29.86,4,1,9,0.00
2012-7-10,66.0,57.3,50.0,58.0,52.8,48.0,97,86,69,29.89,29.77,4,1,11,0.00
2012-7-11,67.0,58.0,51.0,56.0,53.2,50.0,98,85,68,29.83,29.75,5,2,11,0.00
2012-7-14,63.0,57.1,54.0,55.0,52.9,52.0,94,87,75,29.86,29.84,4,2,10,0.00
2012-7-15,66.0,57.6,52.0,56.0,53.5,51.0,97,87,69,29.87,29.79,6,2,13,0.00
2012-7-16,67.0,59.7,55.0,56.0,53.9,52.0,97,82,63,29.87,29.79,6,3,17,0.00
2012-7-17,70.0,62.3,57.0,56.0,54.5,52.0,93,77,58,29.91,29.83,6,2,14,0.00
2012-7-18,70.0,63.1,56.0,56.0,54.1,52.0,86,73,59,29.92,29.88,6,2,14,0.00
2012-7-19,72.0,61.4,52.0,59.0,54.3,50.0,95,79,57,29.96,29.88,5,1,13,0.00
2012-7-20,78.0,62.7,49.0,60.0,54.6,47.0,95,77,52,30.00,29.87,4,1,9,0.00
2012-7-21,73.0,61.7,51.0,61.0,54.7,49.0,94,79,61,29.91,29.79,5,1,11,0.00
2012-7-22,64.0,57.5,55.0,57.0,54.2,53.0,95,89,77,29.88,29.82,4,1,11,0.00
2012-7-23,65.0,59.0,55.0,56.0,54.5,53.0,95,86,72,29.90,29.85,5,2,11,0.00
2012-7-24,68.0,61.6,57.0,56.0,54.8,53.0,89,79,65,29.91,29.85,7,3,15,0.00
2012-7-25,69.0,62.0,58.0,57.0,55.1,54.0,89,79,63,29.94,29.87,6,3,15,0.00
2012-7-26,67.0,61.0,58.0,55.0,53.9,52.0,86,78,63,29.93,29.86,6,2,15,0.00
2012-7-27,69.0,60.0,55.0,57.0,54.1,52.0,94,82,63,29.97,29.90,5,2,12,0.00
2012-7-28,71.0,59.7,55.0,58.0,55.1,53.0,97,86,63,29.99,29.93,4,1,10,0.00
2012-7-29,68.0,58.9,56.0,59.0,55.0,53.0,97,88,69,29.99,29.89,4,1,11,0.00
2012-7-30,68.0,58.7,54.0,59.0,54.8,53.0,98,88,71,29.92,29.83,4,1,11,0.00
2012-7-31,67.0,57.7,52.0,58.0,54.4,51.0,99,90,72,29.94,29.85,4,1,10,0.00
2012-8-1,67.0,57.8,53.0,57.0,54.2,52.0,99,89,69,30.00,29.91,4,1,11,0.00
2012-8-2,65.0,56.9,52.0,57.0,53.9,52.0,99,90,72,29.94,29.85,4,1,11,0.00
2012-8-3,64.0,56.8,53.0,56.0,54.4,52.0,99,92,75,29.86,29.78,5,2,12,0.00
2012-8-4,64.0,58.2,55.0,57.0,55.4,53.0,97,91,77,29.89,29.77,3,1,8,0.00
2012-8-5,69.0,61.2,54.0,60.0,56.7,51.0,97,86,68,29.99,29.89,5,1,11,0.00
2012-8-6,79.0,61.1,47.0,61.0,53.7,46.0,98,79,51,30.03,29.93,5,1,10,0.00
2012-8-7,81.0,62.4,49.0,61.0,53.6,48.0,96,76,45,29.96,29.87,4,1,10,0.00
2012-8-8,78.0,61.6,48.0,60.0,53.1,46.0,95,76,48,29.92,29.80,4,1,10,0.00
2012-8-9,71.0,59.0,49.0,59.0,53.6,47.0,96,83,63,29.87,29.77,5,1,10,0.00
2012-8-10,74.0,60.0,53.0,59.0,54.2,51.0,97,83,57,29.78,29.68,5,1,11,0.00
2012-8-11,68.0,57.2,53.0,58.0,52.6,-99.9,98,87,66,29.75,29.68,5,1,11,0.00
2012-8-12,74.0,59.0,53.0,60.0,54.5,52.0,97,86,60,29.80,29.72,4,1,10,0.00
2012-8-13,69.0,59.1,54.0,58.0,54.9,53.0,98,87,69,29.79,29.72,4,2,10,0.00
2012-8-14,69.0,60.0,54.0,60.0,56.4,53.0,99,89,71,29.76,29.71,5,2,13,0.00
2012-8-15,69.0,60.4,55.0,58.0,56.0,52.0,96,86,68,29.82,29.72,5,2,12,0.00
2012-8-16,72.0,61.6,57.0,60.0,56.7,54.0,95,85,66,29.88,29.81,5,1,11,0.00
2012-8-17,76.0,63.4,56.0,62.0,57.1,55.0,98,82,56,29.90,29.82,5,1,11,0.00
2012-8-18,78.0,64.9,56.0,62.0,56.9,53.0,93,77,53,29.88,29.80,4,1,10,0.00
2012-8-19,78.0,62.0,52.0,60.0,54.9,50.0,96,79,50,29.89,29.80,4,1,10,0.00
2012-8-20,69.0,58.4,52.0,58.0,54.0,50.0,98,86,67,29.87,29.81,4,1,10,0.00
2012-8-21,67.0,58.9,53.0,58.0,54.7,52.0,98,87,71,29.88,29.81,4,1,11,0.00
2012-8-22,68.0,59.0,55.0,58.0,55.7,54.0,97,89,69,29.90,29.83,5,1,11,0.00
2012-8-23,67.0,59.5,56.0,58.0,56.3,55.0,99,90,73,29.90,29.83,5,1,11,0.00
2012-8-24,64.0,60.4,57.0,56.0,54.6,54.0,91,82,74,29.86,29.80,4,2,11,0.00
2012-8-25,64.0,57.7,56.0,56.0,54.3,52.0,96,89,74,29.84,29.78,5,2,11,0.00
2012-8-26,70.0,60.9,51.0,55.0,53.2,48.0,91,77,58,29.93,29.81,6,1,13,0.00
2012-8-27,80.0,61.3,47.0,61.0,53.5,46.0,98,78,47,29.95,29.84,4,1,11,0.00
2012-8-28,83.0,65.2,49.0,62.0,54.3,48.0,98,72,42,29.93,29.81,4,1,9,0.00
2012-8-29,76.0,60.5,48.0,59.0,52.4,45.0,94,76,51,29.85,29.72,4,1,9,0.00
2012-8-30,62.0,56.2,51.0,56.0,53.7,49.0,99,92,78,29.81,29.72,4,1,11,0.00
2012-8-31,70.0,59.7,54.0,58.0,54.6,51.0,98,85,60,29.91,29.80,4,1,12,0.00
2012-9-1,69.0,58.8,50.0,56.0,52.7,48.0,96,82,57,29.98,29.90,4,1,11,0.00
2012-9-2,66.0,58.1,54.0,57.0,54.0,52.0,98,88,71,29.92,29.85,4,2,11,0.00
2012-9-3,68.0,56.7,50.0,58.0,53.5,50.0,99,90,70,29.91,29.85,4,1,11,0.00
2012-9-4,67.0,57.1,53.0,59.0,54.2,53.0,99,91,70,29.96,29.90,4,1,10,0.00
2012-9-5,67.0,58.8,55.0,60.0,55.7,54.0,99,90,70,29.92,29.88,5,1,11,0.00
2012-9-6,71.0,60.7,55.0,59.0,55.7,51.0,95,84,65,29.94,29.87,5,1,11,0.00
2012-9-7,71.0,60.2,51.0,59.0,53.8,50.0,97,81,59,29.99,29.93,5,1,11,0.00
2012-9-8,74.0,61.3,51.0,59.0,53.6,49.0,96,78,53,29.98,29.86,4,1,10,0.00
2012-9-9,82.0,63.0,50.0,58.0,52.6,48.0,96,73,37,29.91,29.79,3,1,8,0.00
2012-9-10,66.0,57.2,49.0,57.0,53.3,47.0,97,88,71,29.87,29.77,4,1,9,0.00
2012-9-11,67.0,58.4,54.0,58.0,55.0,53.0,97,89,71,29.90,29.79,4,1,11,0.00
2012-9-12,62.0,57.3,55.0,58.0,56.0,54.0,98,95,87,29.96,29.90,3,1,8,0.00
2012-9-13,71.0,58.8,55.0,62.0,56.8,55.0,99,93,72,30.01,29.95,5,1,11,0.00
2012-9-14,69.0,60.7,56.0,61.0,56.6,53.0,99,88,68,30.02,29.93,4,1,11,0.00
2012-9-15,71.0,60.4,52.0,60.0,54.9,51.0,99,83,61,30.01,29.91,4,1,11,0.00
2012-9-16,67.0,55.5,52.0,58.0,53.7,51.0,99,94,73,29.97,29.93,3,0,10,0.00
2012-9-17,64.0,57.3,54.0,55.0,53.0,52.0,95,86,68,29.99,29.92,4,1,11,0.00
2012-9-18,69.0,60.5,55.0,56.0,53.7,52.0,91,79,61,30.02,29.94,4,1,11,0.00
2012-9-20,75.0,65.8,54.0,55.0,52.9,49.0,84,64,48,29.92,29.82,4,1,9,0.00
2012-9-21,74.0,58.4,47.0,57.0,51.3,45.0,96,79,53,29.88,29.75,3,1,9,0.00
2012-9-22,70.0,57.1,48.0,59.0,51.3,-99.9,96,84,61,29.82,29.78,4,1,10,0.00
2012-9-23,68.0,56.2,50.0,57.0,53.2,50.0,99,90,68,29.86,29.79,4,1,10,0.00
2012-9-24,65.0,56.8,54.0,56.0,53.7,52.0,96,89,74,29.86,29.79,4,1,8,0.00
2012-9-25,66.0,57.1,52.0,57.0,54.5,52.0,99,92,73,29.83,29.75,4,1,8,0.00
2012-9-26,65.0,56.8,54.0,58.0,54.5,53.0,99,92,73,29.80,29.74,4,1,9,0.00
2012-9-27,66.0,56.5,53.0,58.0,54.1,52.0,99,93,73,29.81,29.75,4,1,10,0.00
2012-9-28,62.0,56.7,54.0,58.0,55.5,54.0,99,95,86,29.86,29.78,3,1,8,0.00
2012-9-29,69.0,57.4,54.0,60.0,55.4,54.0,99,94,73,29.92,29.84,4,1,9,0.00
2012-9-30,90.0,62.9,48.0,64.0,55.4,48.0,99,81,39,29.92,29.80,4,1,9,0.00
2012-10-1,105.0,71.2,53.0,55.0,50.8,36.0,92,59,10,29.84,29.70,4,1,9,0.00
2012-10-2,103.0,70.1,57.0,57.0,47.1,34.0,82,51,10,29.73,29.63,5,1,11,0.00
2012-10-3,71.0,59.5,51.0,61.0,55.7,48.0,92,88,71,29.89,29.68,5,2,13,0.00
2012-10-4,69.0,61.0,52.0,58.0,56.1,50.0,94,85,67,30.03,29.89,4,2,11,0.00
2012-10-5,74.0,60.1,51.0,60.0,55.5,50.0,98,86,60,30.04,29.93,4,1,11,0.00
2012-10-6,76.0,61.7,50.0,61.0,53.7,49.0,99,78,47,29.94,29.80,5,1,11,0.00
2012-10-7,73.0,59.3,48.0,57.0,52.2,46.0,96,79,53,29.89,29.81,4,1,10,0.00
2012-10-8,71.0,58.3,45.0,59.0,52.6,44.0,98,83,56,29.92,29.87,5,1,11,0.00
2012-10-9,74.0,60.2,48.0,59.0,54.2,47.0,99,82,50,29.91,29.81,6,1,13,0.00
2012-10-10,71.0,59.5,56.0,60.0,56.3,54.0,96,89,65,29.83,29.78,4,1,9,0.00
2012-10-11,59.0,57.0,53.0,56.0,54.5,51.0,99,92,81,29.85,29.77,4,1,9,0.00
2012-10-12,68.0,58.7,54.0,60.0,56.3,54.0,99,92,68,30.09,29.84,3,1,10,0.00
2012-10-13,77.0,60.2,49.0,58.0,54.1,49.0,99,83,48,30.16,30.01,4,1,10,0.00
2012-10-14,77.0,61.6,51.0,61.0,55.8,50.0,99,83,56,30.07,29.89,4,1,8,0.00
2012-10-15,80.0,62.2,50.0,65.0,56.4,50.0,99,83,53,29.94,29.79,5,1,10,0.00
2012-10-16,81.0,63.9,52.0,65.0,57.9,51.0,99,83,57,29.85,29.71,3,0,8,0.00
2012-10-17,90.0,66.4,53.0,62.0,49.2,29.0,99,65,12,29.75,29.64,3,1,8,0.00
2012-10-18,89.0,70.4,56.0,65.0,48.3,35.0,92,50,17,29.90,29.71,5,2,15,0.00
2012-10-19,72.0,64.9,59.0,65.0,62.9,59.0,99,93,77,29.91,29.79,4,1,9,0.00
2012-10-20,71.0,59.2,50.0,61.0,57.1,48.0,99,93,68,29.80,29.70,2,0,6,0.00
2012-10-21,65.0,54.2,44.0,54.0,48.9,44.0,99,84,58,29.84,29.73,4,1,11,0.00
2012-10-22,65.0,56.4,51.0,58.0,52.6,49.0,98,88,58,29.84,29.68,6,1,18,0.00
2012-10-23,64.0,55.2,45.0,54.0,48.8,44.0,98,81,50,29.93,29.83,4,1,10,0.00
2012-10-24,67.0,53.8,42.0,57.0,50.5,41.0,99,89,67,30.07,29.92,4,1,11,0.11
2012-10-25,74.0,61.5,54.0,59.0,53.4,45.0,97,76,54,30.09,30.02,3,1,11,0.05
2012-10-26,53.0,50.6,50.0,46.0,45.4,44.0,87,83,75,30.07,30.06,0,0,4,0.00
2012-10-27,81.0,63.3,48.0,58.0,51.0,43.0,92,67,41,29.93,29.78,4,1,8,0.00
2012-10-28,76.0,59.7,49.0,60.0,54.1,48.0,99,84,53,29.88,29.78,5,1,11,0.00
2012-10-29,76.0,60.5,54.0,65.0,56.5,54.0,99,88,60,29.98,29.88,4,1,9,0.00
2012-10-30,74.0,56.3,52.0,63.0,54.8,52.0,99,95,63,29.97,29.85,4,1,11,0.01
2012-10-31,61.0,56.2,55.0,59.0,55.9,55.0,99,98,91,29.93,29.86,2,0,5,0.01
2012-11-1,64.0,59.8,58.0,63.0,59.3,57.0,99,98,95,29.91,29.87,2,1,6,0.00
2012-11-2,70.0,57.1,48.0,59.0,53.4,48.0,99,88,63,29.95,29.88,4,0,10,0.00
2012-11-3,82.0,60.2,48.0,59.0,51.3,48.0,99,77,33,29.99,29.90,3,1,11,0.00
2012-11-4,88.0,66.2,52.0,56.0,52.5,46.0,86,65,32,30.06,29.93,3,1,8,0.00
2012-11-5,96.0,69.3,58.0,54.0,50.4,37.0,76,56,13,29.99,29.84,3,1,8,0.00
2012-11-6,86.0,64.9,50.0,56.0,48.6,38.0,94,61,21,29.92,29.83,4,1,10,0.00
2012-11-7,60.0,55.2,49.0,57.0,53.9,47.0,99,95,84,29.94,29.84,3,1,8,0.00
2012-11-8,64.0,54.2,42.0,56.0,48.2,42.0,99,82,48,29.88,29.78,4,1,11,0.00
2012-11-9,58.0,48.7,41.0,51.0,43.3,39.0,99,83,60,29.88,29.78,5,1,14,0.00
2012-11-10,61.0,46.5,35.0,48.0,40.0,34.0,99,80,54,30.14,29.87,6,1,17,0.00
2012-11-11,66.0,47.2,35.0,46.0,37.5,32.0,99,74,29,30.25,30.13,3,0,8,0.00
2012-11-12,70.0,51.3,38.0,47.0,38.1,28.0,84,64,21,30.24,30.09,4,1,10,0.00
2012-11-13,78.0,58.5,45.0,43.0,36.5,29.0,70,48,17,30.11,29.91,4,2,13,0.00
2012-11-14,80.0,58.9,51.0,43.0,38.4,-99.9,67,50,20,29.96,29.85,3,1,11,0.00
2012-11-15,72.0,57.4,48.0,56.0,46.5,37.0,95,69,29,29.89,29.81,5,1,12,0.00
2012-11-16,67.0,57.7,49.0,62.0,55.2,48.0,99,91,75,29.88,29.74,3,0,11,0.00
2012-11-17,62.0,59.2,55.0,62.0,58.2,53.0,99,96,87,29.89,29.71,5,1,13,0.00
2012-11-18,64.0,58.0,53.0,59.0,54.0,50.0,99,88,60,30.00,29.88,3,1,11,0.00
2012-11-19,67.0,55.8,46.0,54.0,50.1,46.0,99,83,54,30.09,30.07,4,1,11,0.00
2012-11-20,69.0,55.2,45.0,59.0,52.4,45.0,99,91,64,30.08,29.95,2,0,7,0.00
2012-11-21,65.0,57.0,47.0,63.0,55.8,47.0,99,96,80,30.06,29.94,3,0,8,0.00
2012-11-22,71.0,54.4,43.0,54.0,47.9,43.0,99,81,48,30.11,30.01,3,1,9,0.00
2012-11-23,77.0,59.1,46.0,51.0,47.3,43.0,89,68,38,30.09,29.97,3,1,10,0.00
2012-11-24,77.0,57.8,49.0,54.0,48.9,45.0,95,74,41,30.03,29.87,3,1,8,0.00
2012-11-25,65.0,52.4,42.0,57.0,49.3,42.0,99,90,68,29.89,29.78,3,1,8,0.00
2012-11-26,62.0,51.6,41.0,55.0,49.2,41.0,99,92,68,29.95,29.83,4,1,11,0.00
2012-11-27,63.0,54.1,47.0,56.0,51.3,47.0,99,91,71,30.01,29.88,4,1,11,0.00
2012-11-28,65.0,55.5,47.0,61.0,53.7,46.0,99,94,82,29.95,29.74,9,1,21,0.00
2012-11-29,64.0,56.9,47.0,60.0,54.9,47.0,99,93,83,29.95,29.81,2,0,8,0.00
2012-11-30,63.0,59.7,55.0,61.0,59.0,55.0,99,97,85,29.93,29.74,2,0,8,0.00
2012-12-1,67.0,59.8,55.0,64.0,59.0,55.0,99,97,87,29.95,29.83,5,1,12,0.00
2012-12-2,63.0,58.7,51.0,63.0,58.6,51.0,99,99,96,29.98,29.76,7,2,20,0.04
2012-12-3,64.0,53.4,44.0,56.0,51.8,44.0,99,94,75,30.08,29.96,2,0,8,0.04
2012-12-4,62.0,54.2,49.0,60.0,53.2,49.0,99,96,85,30.13,30.04,3,0,8,0.00
2012-12-5,63.0,58.9,55.0,63.0,58.9,55.0,99,99,99,30.07,29.93,1,0,3,0.00
2012-12-6,62.0,56.7,48.0,60.0,53.9,-99.9,99,94,85,29.99,29.92,2,0,7,0.00
2012-12-7,65.0,52.7,43.0,56.0,50.3,43.0,99,92,70,30.01,29.91,3,1,8,0.00
2012-12-8,65.0,49.6,40.0,54.0,46.2,40.0,99,89,57,29.95,29.86,2,0,8,0.00
2012-12-9,69.0,53.7,44.0,49.0,45.6,43.0,99,77,43,30.04,29.93,2,0,8,0.00
2012-12-10,73.0,55.6,47.0,52.0,47.0,43.0,98,75,43,30.08,29.96,4,1,10,0.00
2012-12-11,64.0,52.0,41.0,54.0,48.6,41.0,99,89,60,29.98,29.75,4,1,10,0.00
2012-12-12,58.0,49.5,39.0,48.0,43.1,39.0,99,80,57,29.78,29.72,5,2,13,0.00
2012-12-13,57.0,43.3,35.0,48.0,40.8,35.0,99,91,58,29.78,29.69,4,0,11,0.00
2012-12-14,55.0,43.2,33.0,46.0,40.4,33.0,99,90,66,29.90,29.72,1,0,4,0.00
2012-12-15,47.0,42.0,34.0,46.0,41.7,34.0,99,98,90,29.99,29.87,2,0,6,0.00
2012-12-16,60.0,51.6,43.0,54.0,49.4,43.0,99,93,75,29.99,29.90,2,0,8,0.00
2012-12-17,60.0,53.7,48.0,60.0,53.7,47.0,99,99,96,29.98,29.85,4,0,11,0.00
2012-12-18,55.0,44.8,35.0,48.0,38.6,32.0,99,81,45,30.05,29.86,4,1,13,0.00
2012-12-19,58.0,40.6,30.0,42.0,32.8,27.0,99,78,33,30.20,30.05,2,0,6,0.00
2012-12-20,63.0,41.5,29.0,39.0,33.0,29.0,99,78,31,30.13,29.92,1,0,5,0.00
2012-12-21,58.0,46.3,32.0,51.0,42.0,32.0,99,86,65,29.94,29.80,3,1,13,0.00
2012-12-22,58.0,52.1,45.0,56.0,51.6,45.0,99,98,85,30.00,29.77,6,1,17,0.00
2012-12-23,58.0,51.9,45.0,58.0,51.9,45.0,99,99,99,30.00,29.78,5,1,17,0.00
2012-12-24,59.0,48.0,40.0,57.0,46.1,40.0,99,93,65,30.07,29.88,3,0,8,0.00
2012-12-25,52.0,46.1,41.0,50.0,45.5,41.0,99,97,86,30.03,29.72,3,1,11,0.00
2012-12-26,55.0,46.6,39.0,54.0,45.8,39.0,99,97,85,29.98,29.77,5,1,14,0.00
2012-12-27,57.0,44.4,37.0,52.0,41.7,37.0,99,91,61,30.05,29.96,2,0,6,0.00
2012-12-28,52.0,43.2,36.0,47.0,42.0,36.0,99,95,81,30.06,29.90,2,0,8,0.00
2012-12-29,53.0,45.2,36.0,50.0,43.8,36.0,99,94,78,29.96,29.85,4,1,11,0.00
2012-12-30,56.0,42.3,34.0,50.0,40.4,34.0,99,93,65,30.04,29.90,3,1,8,0.00
2012-12-31,56.0,41.4,33.0,47.0,37.4,33.0,99,88,46,30.17,30.05,2,0,8,0.00
2013-1-1,57.0,44.5,33.0,43.0,38.4,33.0,99,81,51,30.13,30.03,4,2,13,0.00